createdAt,value
2023-01-29T00:00:10.997Z,78.80
2023-01-29T00:02:42.081Z,79.26
2023-01-29T00:05:26.459Z,79.37
2023-01-29T00:07:57.069Z,79.40
2023-01-29T00:10:25.775Z,79.36
2023-01-29T00:12:54.158Z,79.29
2023-01-29T00:15:24.109Z,79.40
2023-01-29T00:17:52.183Z,79.61
2023-01-29T00:20:20.201Z,78.94
2023-01-29T00:22:48.387Z,78.75
2023-01-29T00:25:16.581Z,79.07
2023-01-29T00:27:45.021Z,78.68
2023-01-29T00:30:14.353Z,78.53
2023-01-29T00:32:42.687Z,78.41
2023-01-29T00:35:11.877Z,78.61
2023-01-29T00:37:40.114Z,79.03
2023-01-29T00:40:09.435Z,78.47
2023-01-29T00:42:56.233Z,78.19
2023-01-29T00:45:24.336Z,78.67
2023-01-29T00:47:52.209Z,78.39
2023-01-29T00:50:20.575Z,78.23
2023-01-29T00:52:50.316Z,77.38
2023-01-29T00:55:18.732Z,78.10
2023-01-29T00:57:47.066Z,78.24
2023-01-29T01:00:18.408Z,78.36
2023-01-29T01:03:05.267Z,78.30
2023-01-29T01:05:33.891Z,79.01
2023-01-29T01:08:01.742Z,78.50
2023-01-29T01:10:32.853Z,79.11
2023-01-29T01:13:06.110Z,78.01
2023-01-29T01:15:39.655Z,79.21
2023-01-29T01:18:07.816Z,79.21
2023-01-29T01:20:36.901Z,79.66
2023-01-29T01:23:04.872Z,79.85
2023-01-29T01:25:33.043Z,80.80
2023-01-29T01:28:01.823Z,80.75
2023-01-29T01:30:29.851Z,80.32
2023-01-29T01:32:57.928Z,80.99
2023-01-29T01:35:26.043Z,80.95
2023-01-29T01:37:54.099Z,82.14
2023-01-29T01:40:24.047Z,82.30
2023-01-29T01:42:56.952Z,82.00
2023-01-29T01:45:29.611Z,82.21
2023-01-29T01:48:13.233Z,82.33
2023-01-29T01:50:50.392Z,82.57
2023-01-29T01:53:34.641Z,82.66
2023-01-29T01:56:07.097Z,82.59
2023-01-29T01:58:58.619Z,82.22
2023-01-29T02:01:30.801Z,81.84
2023-01-29T02:04:46.390Z,82.47
2023-01-29T02:07:34.577Z,82.59
2023-01-29T02:10:22.389Z,82.90
2023-01-29T02:12:51.562Z,82.32
2023-01-29T02:15:19.569Z,81.90
2023-01-29T02:17:48.616Z,82.36
2023-01-29T02:20:25.729Z,83.33
2023-01-29T02:22:56.265Z,83.25
2023-01-29T02:26:01.757Z,83.18
2023-01-29T02:28:49.277Z,83.12
2023-01-29T02:31:29.430Z,83.77
2023-01-29T02:34:32.506Z,84.04
2023-01-29T02:37:11.361Z,83.98
2023-01-29T02:40:04.266Z,83.99
2023-01-29T02:42:39.583Z,83.81
2023-01-29T02:45:23.810Z,83.51
2023-01-29T02:47:57.718Z,83.77
2023-01-29T02:50:45.789Z,83.26
2023-01-29T02:53:19.138Z,83.64
2023-01-29T02:59:00.612Z,84.81
2023-01-29T03:01:40.600Z,84.73
2023-01-29T03:04:14.368Z,84.36
2023-01-29T03:06:47.595Z,84.46
2023-01-29T03:09:26.249Z,84.31
2023-01-29T03:12:03.978Z,84.41
2023-01-29T03:14:58.592Z,83.88
2023-01-29T03:17:33.284Z,83.05
2023-01-29T03:20:03.833Z,83.39
2023-01-29T03:22:33.046Z,83.31
2023-01-29T03:25:23.689Z,83.50
2023-01-29T03:28:21.217Z,82.34
2023-01-29T03:31:23.693Z,82.85
2023-01-29T03:34:02.026Z,83.10
2023-01-29T03:36:48.041Z,82.74
2023-01-29T03:39:19.007Z,81.73
2023-01-29T03:42:27.297Z,81.95
2023-01-29T03:48:33.572Z,81.15
2023-01-29T03:51:35.415Z,83.13
2023-01-29T03:54:31.147Z,83.04
2023-01-29T03:57:03.939Z,82.24
2023-01-29T03:59:38.790Z,82.47
2023-01-29T04:02:36.133Z,81.34
2023-01-29T04:08:15.472Z,82.14
2023-01-29T04:10:49.952Z,82.61
2023-01-29T04:13:19.739Z,81.94
2023-01-29T04:15:54.939Z,82.66
2023-01-29T04:18:38.816Z,82.61
2023-01-29T04:21:09.471Z,83.37
2023-01-29T04:23:37.498Z,83.37
2023-01-29T04:26:29.303Z,83.24
2023-01-29T04:29:30.223Z,82.34
2023-01-29T04:32:31.589Z,83.19
2023-01-29T04:35:14.593Z,82.90
2023-01-29T04:37:53.405Z,83.30
2023-01-29T04:43:34.493Z,83.65
2023-01-29T04:46:20.151Z,83.64
2023-01-29T04:49:14.507Z,83.77
2023-01-29T04:51:59.063Z,83.39
2023-01-29T04:54:33.205Z,83.86
2023-01-29T04:57:23.378Z,84.46
2023-01-29T05:00:00.292Z,84.03
2023-01-29T05:02:28.792Z,84.21
2023-01-29T05:04:59.382Z,84.22
2023-01-29T05:07:31.541Z,83.97
2023-01-29T05:10:00.483Z,84.41
2023-01-29T05:12:31.369Z,83.76
2023-01-29T05:15:03.013Z,84.24
2023-01-29T05:17:31.473Z,83.30
2023-01-29T05:19:59.321Z,83.23
2023-01-29T05:22:28.042Z,82.99
2023-01-29T05:24:56.065Z,83.15
2023-01-29T05:27:56.543Z,83.59
2023-01-29T05:30:26.582Z,83.68
2023-01-29T05:32:54.641Z,83.42
2023-01-29T05:35:22.607Z,82.59
2023-01-29T05:37:50.695Z,82.75
2023-01-29T05:40:18.847Z,82.62
2023-01-29T05:42:47.055Z,82.05
2023-01-29T05:45:15.229Z,81.55
2023-01-29T05:47:43.458Z,82.00
2023-01-29T05:50:12.250Z,82.48
2023-01-29T05:52:41.188Z,81.86
2023-01-29T05:55:10.006Z,82.88
2023-01-29T05:57:40.003Z,82.85
2023-01-29T06:00:09.582Z,83.04
2023-01-29T06:02:40.677Z,82.36
2023-01-29T06:05:09.295Z,82.27
2023-01-29T06:07:37.244Z,82.17
2023-01-29T06:10:05.515Z,82.42
2023-01-29T06:12:33.613Z,83.04
2023-01-29T06:15:01.563Z,83.48
2023-01-29T06:17:29.467Z,82.91
2023-01-29T06:19:57.458Z,82.53
2023-01-29T06:22:25.559Z,82.53
2023-01-29T06:24:53.569Z,83.42
2023-01-29T06:27:28.651Z,83.04
2023-01-29T06:29:56.769Z,83.21
2023-01-29T06:32:25.168Z,82.60
2023-01-29T06:34:53.567Z,82.70
2023-01-29T06:37:22.428Z,82.24
2023-01-29T06:39:50.647Z,82.54
2023-01-29T06:42:21.755Z,81.18
2023-01-29T06:44:50.235Z,82.01
2023-01-29T06:47:18.343Z,81.98
2023-01-29T06:49:46.599Z,81.79
2023-01-29T06:52:14.686Z,81.94
2023-01-29T06:54:42.670Z,81.34
2023-01-29T06:57:10.642Z,81.67
2023-01-29T06:59:38.622Z,82.15
2023-01-29T07:02:07.308Z,81.70
2023-01-29T07:04:37.029Z,81.47
2023-01-29T07:07:08.721Z,82.08
2023-01-29T07:09:37.118Z,82.58
2023-01-29T07:12:05.129Z,82.21
2023-01-29T07:14:33.114Z,81.59
2023-01-29T07:17:01.419Z,81.11
2023-01-29T07:19:29.624Z,81.41
2023-01-29T07:21:58.128Z,81.60
2023-01-29T07:24:26.433Z,81.41
2023-01-29T07:26:54.320Z,81.00
2023-01-29T07:29:22.259Z,81.47
2023-01-29T07:31:50.382Z,80.49
2023-01-29T07:34:18.529Z,80.65
2023-01-29T07:36:46.980Z,81.15
2023-01-29T07:39:15.401Z,80.61
2023-01-29T07:41:43.421Z,80.64
2023-01-29T07:44:17.285Z,80.52
2023-01-29T07:46:45.606Z,80.39
2023-01-29T07:49:13.819Z,79.86
2023-01-29T07:51:42.293Z,80.34
2023-01-29T07:54:10.341Z,80.65
2023-01-29T07:56:38.796Z,80.41
2023-01-29T07:59:06.917Z,80.57
2023-01-29T08:01:34.975Z,80.01
2023-01-29T08:04:03.117Z,79.38
2023-01-29T08:06:31.314Z,78.88
2023-01-29T08:09:00.145Z,78.68
2023-01-29T08:11:28.847Z,78.82
2023-01-29T08:13:57.660Z,78.68
2023-01-29T08:16:26.072Z,77.81
2023-01-29T08:18:53.914Z,78.23
2023-01-29T08:21:21.888Z,78.05
2023-01-29T08:23:50.123Z,77.92
2023-01-29T08:26:18.042Z,78.04
2023-01-29T08:28:46.025Z,78.33
2023-01-29T08:31:18.543Z,78.51
2023-01-29T08:33:46.861Z,78.81
2023-01-29T08:36:15.462Z,79.40
2023-01-29T08:38:43.350Z,79.47
2023-01-29T08:41:11.621Z,78.84
2023-01-29T08:43:40.223Z,78.56
2023-01-29T08:46:08.760Z,78.45
2023-01-29T08:48:36.878Z,78.46
2023-01-29T08:51:05.397Z,78.35
2023-01-29T08:53:33.696Z,79.04
2023-01-29T08:56:01.756Z,77.78
2023-01-29T08:58:29.989Z,77.85
2023-01-29T09:01:05.744Z,77.06
2023-01-29T09:03:33.746Z,76.76
2023-01-29T09:06:01.815Z,76.98
2023-01-29T09:08:29.810Z,78.31
2023-01-29T09:11:00.476Z,78.00
2023-01-29T09:13:28.473Z,77.79
2023-01-29T09:16:00.438Z,77.56
2023-01-29T09:18:30.138Z,78.01
2023-01-29T09:20:58.832Z,78.06
2023-01-29T09:23:28.893Z,78.17
2023-01-29T09:25:57.255Z,78.77
2023-01-29T09:28:25.199Z,78.86
2023-01-29T09:30:53.248Z,78.68
2023-01-29T09:33:21.329Z,79.13
2023-01-29T09:35:49.223Z,78.98
2023-01-29T09:38:17.060Z,78.09
2023-01-29T09:41:16.743Z,77.37
2023-01-29T09:44:05.117Z,77.70
2023-01-29T09:46:41.795Z,77.51
2023-01-29T09:49:28.400Z,77.55
2023-01-29T09:52:06.122Z,79.69
2023-01-29T09:55:01.150Z,78.55
2023-01-29T09:57:39.290Z,78.16
2023-01-29T10:00:14.261Z,78.29
2023-01-29T10:03:20.508Z,78.68
2023-01-29T10:05:57.325Z,78.16
2023-01-29T10:08:37.305Z,79.56
2023-01-29T10:11:34.102Z,78.85
2023-01-29T10:14:24.394Z,78.24
2023-01-29T10:17:01.318Z,78.77
2023-01-29T10:20:11.271Z,78.29
2023-01-29T10:23:00.324Z,77.90
2023-01-29T10:25:28.980Z,77.78
2023-01-29T10:27:59.482Z,77.06
2023-01-29T10:30:42.012Z,77.27
2023-01-29T10:33:18.248Z,77.65
2023-01-29T10:36:02.868Z,77.41
2023-01-29T10:38:51.448Z,77.45
2023-01-29T10:41:41.513Z,76.32
2023-01-29T10:44:36.403Z,76.28
2023-01-29T10:47:40.680Z,76.29
2023-01-29T10:50:34.295Z,76.38
2023-01-29T10:53:11.572Z,76.87
2023-01-29T10:56:23.944Z,77.23
2023-01-29T10:58:55.514Z,77.77
2023-01-29T11:01:24.694Z,78.22
2023-01-29T11:04:00.093Z,78.39
2023-01-29T11:06:36.800Z,77.55
2023-01-29T11:09:23.797Z,78.33
2023-01-29T11:12:13.799Z,77.23
2023-01-29T11:14:54.680Z,76.93
2023-01-29T11:17:25.224Z,77.44
2023-01-29T11:19:57.779Z,77.44
2023-01-29T11:22:30.999Z,77.63
2023-01-29T11:25:18.783Z,77.79
2023-01-29T11:27:58.168Z,77.50
2023-01-29T11:30:40.692Z,78.44
2023-01-29T11:33:26.631Z,79.01
2023-01-29T11:35:57.405Z,78.97
2023-01-29T11:38:28.278Z,78.93
2023-01-29T11:41:07.170Z,78.88
2023-01-29T11:43:35.421Z,79.06
2023-01-29T11:46:12.553Z,79.49
2023-01-29T11:48:42.826Z,79.65
2023-01-29T11:51:22.584Z,80.23
2023-01-29T11:53:56.739Z,80.36
2023-01-29T11:56:40.961Z,79.50
2023-01-29T11:59:26.671Z,79.55
2023-01-29T12:01:56.120Z,79.92
2023-01-29T12:04:25.939Z,79.86
2023-01-29T12:06:55.003Z,78.81
2023-01-29T12:09:27.580Z,77.98
2023-01-29T12:11:56.434Z,77.57
2023-01-29T12:14:34.283Z,77.43
2023-01-29T12:17:13.450Z,76.92
2023-01-29T12:19:55.851Z,76.21
2023-01-29T12:22:43.667Z,75.32
2023-01-29T12:25:31.857Z,74.67
2023-01-29T12:28:23.784Z,74.38
2023-01-29T12:31:15.756Z,74.60
2023-01-29T12:33:57.858Z,74.13
2023-01-29T12:36:44.568Z,74.62
2023-01-29T12:39:17.443Z,75.36
2023-01-29T12:41:58.864Z,74.93
2023-01-29T12:45:08.479Z,75.24
2023-01-29T12:47:44.291Z,76.21
2023-01-29T12:50:23.124Z,75.54
2023-01-29T12:52:58.919Z,75.30
2023-01-29T12:55:35.222Z,75.49
2023-01-29T12:58:14.581Z,76.39
2023-01-29T13:00:49.649Z,77.49
2023-01-29T13:03:30.460Z,78.20
2023-01-29T13:06:12.681Z,78.02
2023-01-29T13:08:51.753Z,78.28
2023-01-29T13:11:35.018Z,77.75
2023-01-29T13:14:25.976Z,77.10
2023-01-29T13:17:03.114Z,76.83
2023-01-29T13:19:39.663Z,77.38
2023-01-29T13:22:36.305Z,77.58
2023-01-29T13:25:06.064Z,78.02
2023-01-29T13:27:37.112Z,77.48
2023-01-29T13:30:06.657Z,78.11
2023-01-29T13:32:36.831Z,78.26
2023-01-29T13:35:13.818Z,78.75
2023-01-29T13:37:57.208Z,78.87
2023-01-29T13:40:29.590Z,79.25
2023-01-29T13:43:00.363Z,78.42
2023-01-29T13:45:45.033Z,78.51
2023-01-29T13:48:37.265Z,77.62
2023-01-29T13:51:20.491Z,78.65
2023-01-29T13:54:18.104Z,78.79
2023-01-29T13:56:59.665Z,79.01
2023-01-29T13:59:51.944Z,78.69
2023-01-29T14:02:28.901Z,78.46
2023-01-29T14:05:31.217Z,78.78
2023-01-29T14:08:15.496Z,79.77
2023-01-29T14:10:44.959Z,78.07
2023-01-29T14:13:19.210Z,78.18
2023-01-29T14:16:13.843Z,78.56
2023-01-29T14:19:00.958Z,77.24
2023-01-29T14:21:35.969Z,77.11
2023-01-29T14:24:17.554Z,76.64
2023-01-29T14:26:47.940Z,76.81
2023-01-29T14:29:34.602Z,76.75
2023-01-29T14:32:06.574Z,77.07
2023-01-29T14:35:05.836Z,77.97
2023-01-29T14:37:39.708Z,78.46
2023-01-29T14:40:30.053Z,78.80
2023-01-29T14:43:21.189Z,79.45
2023-01-29T14:45:50.636Z,78.79
2023-01-29T14:48:37.104Z,79.60
2023-01-29T14:51:14.554Z,79.97
2023-01-29T14:54:40.657Z,80.48
2023-01-29T14:57:15.499Z,80.50
2023-01-29T14:59:54.918Z,81.48
2023-01-29T15:02:33.565Z,81.16
2023-01-29T15:05:05.403Z,81.52
2023-01-29T15:07:52.203Z,80.88
2023-01-29T15:10:40.500Z,81.48
2023-01-29T15:13:15.614Z,81.96
2023-01-29T15:15:50.007Z,80.81
2023-01-29T15:18:53.074Z,81.70
2023-01-29T15:21:21.593Z,80.83
2023-01-29T15:24:05.748Z,81.17
2023-01-29T15:26:36.377Z,82.04
2023-01-29T15:29:06.315Z,81.69
2023-01-29T15:31:36.000Z,81.55
2023-01-29T15:34:08.021Z,80.69
2023-01-29T15:36:37.916Z,80.71
2023-01-29T15:39:19.639Z,80.38
2023-01-29T15:41:49.229Z,80.27
2023-01-29T15:44:27.193Z,80.19
2023-01-29T15:46:59.759Z,80.56
2023-01-29T15:49:36.417Z,81.26
2023-01-29T15:52:26.284Z,80.32
2023-01-29T15:54:58.755Z,79.56
2023-01-29T15:57:35.312Z,80.06
2023-01-29T16:00:10.206Z,79.40
2023-01-29T16:02:43.710Z,80.18
2023-01-29T16:05:20.055Z,79.08
2023-01-29T16:07:56.239Z,79.24
2023-01-29T16:10:35.922Z,79.61
2023-01-29T16:13:05.723Z,79.02
2023-01-29T16:15:38.412Z,79.75
2023-01-29T16:21:15.415Z,79.53
2023-01-29T16:23:54.260Z,78.80
2023-01-29T16:26:28.131Z,78.57
2023-01-29T16:29:03.349Z,78.21
2023-01-29T16:31:33.352Z,77.88
2023-01-29T16:36:55.248Z,77.14
2023-01-29T16:39:28.160Z,77.62
2023-01-29T16:42:17.732Z,78.09
2023-01-29T16:45:08.532Z,78.51
2023-01-29T16:47:39.812Z,79.19
2023-01-29T16:50:40.701Z,78.10
2023-01-29T16:53:25.339Z,78.24
2023-01-29T16:55:56.709Z,78.60
2023-01-29T16:58:28.621Z,78.42
2023-01-29T17:01:05.566Z,79.51
2023-01-29T17:03:38.607Z,79.26
2023-01-29T17:06:22.474Z,79.43
2023-01-29T17:09:02.551Z,80.00
2023-01-29T17:11:37.851Z,79.38
2023-01-29T17:14:08.659Z,79.31
2023-01-29T17:19:34.309Z,79.18
2023-01-29T17:22:20.869Z,77.70
2023-01-29T17:24:57.863Z,78.14
2023-01-29T17:27:26.333Z,77.79
2023-01-29T17:29:55.212Z,77.98
2023-01-29T17:32:25.862Z,79.12
2023-01-29T17:35:15.007Z,79.57
2023-01-29T17:37:46.084Z,79.20
2023-01-29T17:40:32.245Z,79.78
2023-01-29T17:43:00.854Z,80.09
2023-01-29T17:45:29.358Z,79.80
2023-01-29T17:48:00.270Z,79.72
2023-01-29T17:50:32.020Z,79.95
2023-01-29T17:53:00.505Z,79.80
2023-01-29T17:55:28.895Z,80.64
2023-01-29T17:57:57.865Z,79.96
2023-01-29T18:00:26.218Z,79.38
2023-01-29T18:02:55.051Z,79.08
2023-01-29T18:05:23.687Z,78.88
2023-01-29T18:07:54.747Z,79.49
2023-01-29T18:10:23.551Z,78.97
2023-01-29T18:12:52.715Z,78.39
2023-01-29T18:15:21.663Z,78.73
2023-01-29T18:17:53.234Z,78.14
2023-01-29T18:20:25.805Z,78.66
2023-01-29T18:22:54.885Z,78.49
2023-01-29T18:25:24.918Z,78.74
2023-01-29T18:27:54.427Z,78.13
2023-01-29T18:30:22.788Z,78.87
2023-01-29T18:32:51.221Z,77.72
2023-01-29T18:35:19.851Z,78.28
2023-01-29T18:37:48.183Z,78.47
2023-01-29T18:40:17.864Z,78.20
2023-01-29T18:42:47.561Z,78.66
2023-01-29T18:45:17.132Z,79.09
2023-01-29T18:47:46.572Z,79.31
2023-01-29T18:50:14.966Z,78.67
2023-01-29T18:52:44.891Z,78.50
2023-01-29T18:55:13.388Z,79.33
2023-01-29T18:58:26.145Z,79.25
2023-01-29T19:06:05.562Z,78.42
2023-01-29T19:11:18.028Z,78.98
2023-01-29T19:13:52.900Z,78.71
2023-01-29T19:16:21.299Z,79.22
2023-01-29T19:18:49.851Z,79.43
2023-01-29T19:21:18.809Z,79.23
2023-01-29T19:23:47.465Z,79.00
2023-01-29T19:26:27.496Z,79.54
2023-01-29T19:29:09.527Z,79.18
2023-01-29T19:31:38.798Z,79.20
2023-01-29T19:34:09.983Z,79.90
2023-01-29T19:36:48.938Z,79.19
2023-01-29T19:39:17.698Z,80.08
2023-01-29T19:41:54.235Z,80.08
2023-01-29T19:44:23.237Z,79.90
2023-01-29T19:46:51.744Z,79.32
2023-01-29T19:49:20.216Z,79.60
2023-01-29T19:51:49.262Z,80.30
2023-01-29T19:54:17.737Z,79.14
2023-01-29T19:56:59.592Z,79.22
2023-01-29T19:59:31.417Z,78.34
2023-01-29T20:02:02.527Z,77.79
2023-01-29T20:04:36.514Z,78.38
2023-01-29T20:07:04.615Z,79.07
2023-01-29T20:09:33.470Z,78.50
2023-01-29T20:14:49.359Z,78.13
2023-01-29T20:17:18.537Z,79.25
2023-01-29T20:19:51.799Z,78.20
2023-01-29T20:22:20.184Z,78.72
2023-01-29T20:24:48.875Z,78.22
2023-01-29T20:27:18.649Z,78.96
2023-01-29T20:29:46.935Z,78.92
2023-01-29T20:32:16.456Z,78.70
2023-01-29T20:34:46.130Z,78.61
2023-01-29T20:37:19.848Z,78.01
2023-01-29T20:42:30.228Z,78.68
2023-01-29T20:44:58.750Z,78.87
2023-01-29T20:47:28.984Z,78.46
2023-01-29T20:50:02.736Z,78.76
2023-01-29T20:52:36.590Z,78.85
2023-01-29T20:55:06.527Z,78.28
2023-01-29T20:57:34.822Z,78.37
2023-01-29T21:00:03.447Z,78.68
2023-01-29T21:02:31.585Z,78.61
2023-01-29T21:04:59.606Z,77.91
2023-01-29T21:07:27.453Z,78.57
2023-01-29T21:09:55.523Z,78.05
2023-01-29T21:12:23.440Z,78.71
2023-01-29T21:14:51.484Z,77.84
2023-01-29T21:17:19.382Z,78.63
2023-01-29T21:19:48.157Z,79.03
2023-01-29T21:22:16.947Z,79.31
2023-01-29T21:24:45.076Z,78.19
2023-01-29T21:27:12.997Z,78.37
2023-01-29T21:29:41.032Z,77.75
2023-01-29T21:32:10.168Z,78.41
2023-01-29T21:34:38.277Z,78.52
2023-01-29T21:37:06.201Z,78.27
2023-01-29T21:39:34.219Z,78.41
2023-01-29T21:42:20.453Z,77.44
2023-01-29T21:44:48.539Z,77.38
2023-01-29T21:47:16.509Z,78.59
2023-01-29T21:49:45.064Z,78.56
2023-01-29T21:52:14.434Z,77.58
2023-01-29T21:54:49.118Z,77.00
2023-01-29T21:57:17.527Z,77.84
2023-01-29T21:59:47.195Z,76.64
2023-01-29T22:02:23.301Z,77.18
2023-01-29T22:04:54.147Z,77.07
2023-01-29T22:07:22.147Z,77.85
2023-01-29T22:09:50.405Z,77.18
2023-01-29T22:12:18.522Z,77.50
2023-01-29T22:14:47.552Z,77.00
2023-01-29T22:17:16.681Z,76.30
2023-01-29T22:19:44.675Z,76.32
2023-01-29T22:22:14.761Z,75.72
2023-01-29T22:24:45.162Z,76.16
2023-01-29T22:27:15.177Z,76.96
2023-01-29T22:29:43.318Z,76.83
2023-01-29T22:32:11.812Z,76.88
2023-01-29T22:34:39.698Z,75.83
2023-01-29T22:37:07.740Z,75.58
2023-01-29T22:39:35.685Z,75.91
2023-01-29T22:42:04.074Z,76.08
2023-01-29T22:44:32.030Z,74.69
2023-01-29T22:47:00.547Z,74.80
2023-01-29T22:49:30.390Z,75.24
2023-01-29T22:52:10.295Z,75.47
2023-01-29T22:54:40.377Z,75.25
2023-01-29T22:57:11.272Z,74.59
2023-01-29T22:59:39.903Z,74.90
2023-01-29T23:02:08.931Z,75.53
2023-01-29T23:04:37.399Z,74.79
2023-01-29T23:07:05.299Z,75.83
2023-01-29T23:09:33.420Z,75.49
2023-01-29T23:12:01.707Z,75.38
2023-01-29T23:14:29.869Z,75.04
2023-01-29T23:16:57.953Z,76.27
2023-01-29T23:19:27.260Z,74.84
2023-01-29T23:21:55.793Z,74.97
2023-01-29T23:24:23.745Z,74.29
2023-01-29T23:27:10.612Z,75.23
2023-01-29T23:29:38.606Z,74.67
2023-01-29T23:32:07.430Z,73.82
2023-01-29T23:34:35.486Z,73.78
2023-01-29T23:37:05.834Z,73.44
2023-01-29T23:39:33.931Z,74.35
2023-01-29T23:42:02.343Z,74.10
2023-01-29T23:44:30.308Z,72.93
2023-01-29T23:46:59.445Z,74.79
2023-01-29T23:49:27.523Z,75.14
2023-01-29T23:51:55.378Z,75.69
2023-01-29T23:54:23.581Z,75.13
2023-01-29T23:56:51.479Z,74.89
2023-01-29T23:59:19.580Z,74.89
